sensor_id;sensor_type;location;lat;lon;timestamp;P1;durP1;ratioP1;P2;durP2;ratioP2
67348;SDS011;54234;50.320;3.474;2022-08-01T00:00:07;0.30;;;0.30;;
67348;SDS011;54234;50.320;3.474;2022-08-01T00:02:32;0.30;;;0.30;;
67348;SDS011;54234;50.320;3.474;2022-08-01T00:04:58;0.30;;;0.30;;
67348;SDS011;54234;50.320;3.474;2022-08-01T00:07:23;0.30;;;0.30;;
67348;SDS011;54234;50.320;3.474;2022-08-01T00:09:48;0.30;;;0.30;;
67348;SDS011;54234;50.320;3.474;2022-08-01T00:12:13;0.30;;;0.30;;
67348;SDS011;54234;50.320;3.474;2022-08-01T00:14:39;0.30;;;0.30;;
67348;SDS011;54234;50.320;3.474;2022-08-01T00:17:04;0.30;;;0.30;;
67348;SDS011;54234;50.320;3.474;2022-08-01T00:19:29;0.30;;;0.30;;
67348;SDS011;54234;50.320;3.474;2022-08-01T00:21:54;0.30;;;0.30;;
67348;SDS011;54234;50.320;3.474;2022-08-01T00:24:20;0.30;;;0.30;;
67348;SDS011;54234;50.320;3.474;2022-08-01T00:26:45;0.30;;;0.30;;
67348;SDS011;54234;50.320;3.474;2022-08-01T00:29:10;0.20;;;0.20;;
67348;SDS011;54234;50.320;3.474;2022-08-01T00:31:35;0.30;;;0.30;;
67348;SDS011;54234;50.320;3.474;2022-08-01T00:34:00;0.20;;;0.20;;
67348;SDS011;54234;50.320;3.474;2022-08-01T00:36:26;0.20;;;0.20;;
67348;SDS011;54234;50.320;3.474;2022-08-01T00:38:51;0.30;;;0.30;;
67348;SDS011;54234;50.320;3.474;2022-08-01T00:41:16;0.30;;;0.30;;
67348;SDS011;54234;50.320;3.474;2022-08-01T00:43:42;0.30;;;0.30;;
67348;SDS011;54234;50.320;3.474;2022-08-01T00:46:07;0.30;;;0.30;;
67348;SDS011;54234;50.320;3.474;2022-08-01T00:48:32;0.30;;;0.30;;
67348;SDS011;54234;50.320;3.474;2022-08-01T00:50:57;0.20;;;0.20;;
67348;SDS011;54234;50.320;3.474;2022-08-01T00:53:22;0.30;;;0.30;;
67348;SDS011;54234;50.320;3.474;2022-08-01T00:55:48;0.30;;;0.30;;
67348;SDS011;54234;50.320;3.474;2022-08-01T00:58:16;0.30;;;0.30;;
67348;SDS011;54234;50.320;3.474;2022-08-01T01:00:42;0.30;;;0.30;;
67348;SDS011;54234;50.320;3.474;2022-08-01T01:03:07;0.30;;;0.30;;
67348;SDS011;54234;50.320;3.474;2022-08-01T01:05:35;0.30;;;0.30;;
67348;SDS011;54234;50.320;3.474;2022-08-01T01:08:04;0.30;;;0.30;;
67348;SDS011;54234;50.320;3.474;2022-08-01T01:10:32;0.30;;;0.30;;
67348;SDS011;54234;50.320;3.474;2022-08-01T01:13:04;0.30;;;0.30;;
67348;SDS011;54234;50.320;3.474;2022-08-01T01:15:34;0.30;;;0.30;;
67348;SDS011;54234;50.320;3.474;2022-08-01T01:18:23;0.30;;;0.30;;
67348;SDS011;54234;50.320;3.474;2022-08-01T01:20:57;0.30;;;0.30;;
67348;SDS011;54234;50.320;3.474;2022-08-01T01:28:40;0.30;;;0.30;;
67348;SDS011;54234;50.320;3.474;2022-08-01T01:31:10;0.30;;;0.30;;
67348;SDS011;54234;50.320;3.474;2022-08-01T01:33:37;0.30;;;0.30;;
67348;SDS011;54234;50.320;3.474;2022-08-01T01:36:03;0.30;;;0.30;;
67348;SDS011;54234;50.320;3.474;2022-08-01T01:38:32;0.30;;;0.30;;
67348;SDS011;54234;50.320;3.474;2022-08-01T01:40:59;0.30;;;0.30;;
67348;SDS011;54234;50.320;3.474;2022-08-01T01:43:25;0.30;;;0.30;;
67348;SDS011;54234;50.320;3.474;2022-08-01T01:45:51;0.30;;;0.30;;
67348;SDS011;54234;50.320;3.474;2022-08-01T01:48:17;0.30;;;0.30;;
67348;SDS011;54234;50.320;3.474;2022-08-01T01:50:43;0.30;;;0.30;;
67348;SDS011;54234;50.320;3.474;2022-08-01T01:53:10;0.30;;;0.30;;
67348;SDS011;54234;50.320;3.474;2022-08-01T01:55:37;0.30;;;0.30;;
67348;SDS011;54234;50.320;3.474;2022-08-01T01:58:03;0.30;;;0.30;;
67348;SDS011;54234;50.320;3.474;2022-08-01T02:00:30;0.30;;;0.30;;
67348;SDS011;54234;50.320;3.474;2022-08-01T02:02:55;0.30;;;0.30;;
67348;SDS011;54234;50.320;3.474;2022-08-01T02:05:21;0.30;;;0.30;;
67348;SDS011;54234;50.320;3.474;2022-08-01T02:07:47;0.30;;;0.30;;
67348;SDS011;54234;50.320;3.474;2022-08-01T02:10:14;0.30;;;0.30;;
67348;SDS011;54234;50.320;3.474;2022-08-01T02:12:41;0.30;;;0.30;;
67348;SDS011;54234;50.320;3.474;2022-08-01T02:15:08;0.30;;;0.30;;
67348;SDS011;54234;50.320;3.474;2022-08-01T02:17:36;0.30;;;0.30;;
67348;SDS011;54234;50.320;3.474;2022-08-01T02:20:02;0.30;;;0.30;;
67348;SDS011;54234;50.320;3.474;2022-08-01T02:22:32;0.30;;;0.30;;
67348;SDS011;54234;50.320;3.474;2022-08-01T02:25:02;0.30;;;0.30;;
67348;SDS011;54234;50.320;3.474;2022-08-01T02:27:34;0.30;;;0.30;;
67348;SDS011;54234;50.320;3.474;2022-08-01T02:30:03;0.20;;;0.20;;
67348;SDS011;54234;50.320;3.474;2022-08-01T02:32:31;0.30;;;0.30;;
67348;SDS011;54234;50.320;3.474;2022-08-01T02:34:57;0.20;;;0.20;;
67348;SDS011;54234;50.320;3.474;2022-08-01T02:37:22;0.20;;;0.20;;
67348;SDS011;54234;50.320;3.474;2022-08-01T02:39:50;0.20;;;0.20;;
67348;SDS011;54234;50.320;3.474;2022-08-01T02:42:17;0.20;;;0.20;;
67348;SDS011;54234;50.320;3.474;2022-08-01T02:44:43;0.20;;;0.20;;
67348;SDS011;54234;50.320;3.474;2022-08-01T02:47:09;0.20;;;0.20;;
67348;SDS011;54234;50.320;3.474;2022-08-01T02:49:36;0.20;;;0.20;;
67348;SDS011;54234;50.320;3.474;2022-08-01T02:52:04;0.20;;;0.20;;
67348;SDS011;54234;50.320;3.474;2022-08-01T02:54:29;0.30;;;0.30;;
67348;SDS011;54234;50.320;3.474;2022-08-01T02:56:56;0.30;;;0.30;;
67348;SDS011;54234;50.320;3.474;2022-08-01T02:59:22;0.30;;;0.30;;
67348;SDS011;54234;50.320;3.474;2022-08-01T03:01:50;0.20;;;0.20;;
67348;SDS011;54234;50.320;3.474;2022-08-01T03:04:16;0.20;;;0.20;;
67348;SDS011;54234;50.320;3.474;2022-08-01T03:06:42;0.20;;;0.20;;
67348;SDS011;54234;50.320;3.474;2022-08-01T03:09:09;0.30;;;0.30;;
67348;SDS011;54234;50.320;3.474;2022-08-01T03:11:35;0.20;;;0.20;;
67348;SDS011;54234;50.320;3.474;2022-08-01T03:14:03;0.30;;;0.30;;
67348;SDS011;54234;50.320;3.474;2022-08-01T03:16:29;0.30;;;0.30;;
67348;SDS011;54234;50.320;3.474;2022-08-01T03:18:56;0.20;;;0.20;;
67348;SDS011;54234;50.320;3.474;2022-08-01T03:21:22;0.30;;;0.30;;
67348;SDS011;54234;50.320;3.474;2022-08-01T03:23:48;0.30;;;0.30;;
67348;SDS011;54234;50.320;3.474;2022-08-01T03:26:15;0.30;;;0.30;;
67348;SDS011;54234;50.320;3.474;2022-08-01T03:28:40;0.30;;;0.30;;
67348;SDS011;54234;50.320;3.474;2022-08-01T03:31:06;0.30;;;0.30;;
67348;SDS011;54234;50.320;3.474;2022-08-01T03:33:31;0.30;;;0.30;;
67348;SDS011;54234;50.320;3.474;2022-08-01T03:35:57;0.30;;;0.30;;
67348;SDS011;54234;50.320;3.474;2022-08-01T03:38:25;0.30;;;0.30;;
67348;SDS011;54234;50.320;3.474;2022-08-01T03:44:10;0.30;;;0.30;;
67348;SDS011;54234;50.320;3.474;2022-08-01T03:46:43;0.30;;;0.30;;
67348;SDS011;54234;50.320;3.474;2022-08-01T03:49:22;0.30;;;0.30;;
67348;SDS011;54234;50.320;3.474;2022-08-01T03:51:48;0.30;;;0.30;;
67348;SDS011;54234;50.320;3.474;2022-08-01T03:54:15;0.30;;;0.30;;
67348;SDS011;54234;50.320;3.474;2022-08-01T03:56:41;0.30;;;0.30;;
67348;SDS011;54234;50.320;3.474;2022-08-01T03:59:06;0.30;;;0.30;;
67348;SDS011;54234;50.320;3.474;2022-08-01T04:01:33;0.30;;;0.30;;
67348;SDS011;54234;50.320;3.474;2022-08-01T04:03:59;0.30;;;0.30;;
67348;SDS011;54234;50.320;3.474;2022-08-01T04:06:25;0.20;;;0.20;;
67348;SDS011;54234;50.320;3.474;2022-08-01T04:08:50;0.30;;;0.30;;
67348;SDS011;54234;50.320;3.474;2022-08-01T04:11:25;0.30;;;0.30;;
67348;SDS011;54234;50.320;3.474;2022-08-01T04:13:51;0.30;;;0.30;;
67348;SDS011;54234;50.320;3.474;2022-08-01T04:16:17;0.30;;;0.30;;
67348;SDS011;54234;50.320;3.474;2022-08-01T04:18:42;0.30;;;0.30;;
67348;SDS011;54234;50.320;3.474;2022-08-01T04:21:07;0.30;;;0.30;;
67348;SDS011;54234;50.320;3.474;2022-08-01T04:23:33;0.30;;;0.30;;
67348;SDS011;54234;50.320;3.474;2022-08-01T04:25:59;0.30;;;0.30;;
67348;SDS011;54234;50.320;3.474;2022-08-01T04:28:25;0.30;;;0.30;;
67348;SDS011;54234;50.320;3.474;2022-08-01T04:30:51;0.30;;;0.30;;
67348;SDS011;54234;50.320;3.474;2022-08-01T04:33:18;0.30;;;0.30;;
67348;SDS011;54234;50.320;3.474;2022-08-01T04:35:44;0.30;;;0.30;;
67348;SDS011;54234;50.320;3.474;2022-08-01T04:38:10;0.30;;;0.30;;
67348;SDS011;54234;50.320;3.474;2022-08-01T04:40:37;0.30;;;0.30;;
67348;SDS011;54234;50.320;3.474;2022-08-01T04:43:03;0.30;;;0.30;;
67348;SDS011;54234;50.320;3.474;2022-08-01T04:45:28;0.27;;;0.27;;
67348;SDS011;54234;50.320;3.474;2022-08-01T04:47:54;0.20;;;0.20;;
67348;SDS011;54234;50.320;3.474;2022-08-01T04:50:19;0.30;;;0.30;;
67348;SDS011;54234;50.320;3.474;2022-08-01T04:52:46;0.20;;;0.20;;
67348;SDS011;54234;50.320;3.474;2022-08-01T04:55:12;0.30;;;0.30;;
67348;SDS011;54234;50.320;3.474;2022-08-01T04:57:38;0.30;;;0.30;;
67348;SDS011;54234;50.320;3.474;2022-08-01T05:00:05;0.30;;;0.30;;
67348;SDS011;54234;50.320;3.474;2022-08-01T05:02:31;0.30;;;0.30;;
67348;SDS011;54234;50.320;3.474;2022-08-01T05:04:57;0.30;;;0.30;;
67348;SDS011;54234;50.320;3.474;2022-08-01T05:07:22;0.20;;;0.20;;
67348;SDS011;54234;50.320;3.474;2022-08-01T05:09:47;0.30;;;0.30;;
67348;SDS011;54234;50.320;3.474;2022-08-01T05:12:13;0.20;;;0.20;;
67348;SDS011;54234;50.320;3.474;2022-08-01T05:14:38;0.30;;;0.30;;
67348;SDS011;54234;50.320;3.474;2022-08-01T05:17:04;0.30;;;0.30;;
67348;SDS011;54234;50.320;3.474;2022-08-01T05:19:30;0.30;;;0.30;;
67348;SDS011;54234;50.320;3.474;2022-08-01T05:21:56;0.30;;;0.30;;
67348;SDS011;54234;50.320;3.474;2022-08-01T05:24:22;0.20;;;0.20;;
67348;SDS011;54234;50.320;3.474;2022-08-01T05:26:47;0.23;;;0.23;;
67348;SDS011;54234;50.320;3.474;2022-08-01T05:29:14;0.20;;;0.20;;
67348;SDS011;54234;50.320;3.474;2022-08-01T05:31:39;0.20;;;0.20;;
67348;SDS011;54234;50.320;3.474;2022-08-01T05:34:04;0.30;;;0.30;;
67348;SDS011;54234;50.320;3.474;2022-08-01T05:36:29;0.30;;;0.30;;
67348;SDS011;54234;50.320;3.474;2022-08-01T05:38:55;0.30;;;0.30;;
67348;SDS011;54234;50.320;3.474;2022-08-01T05:41:20;0.30;;;0.30;;
67348;SDS011;54234;50.320;3.474;2022-08-01T05:43:45;0.30;;;0.30;;
67348;SDS011;54234;50.320;3.474;2022-08-01T05:46:11;0.30;;;0.30;;
67348;SDS011;54234;50.320;3.474;2022-08-01T05:48:36;0.30;;;0.30;;
67348;SDS011;54234;50.320;3.474;2022-08-01T05:51:02;0.30;;;0.30;;
67348;SDS011;54234;50.320;3.474;2022-08-01T05:53:27;0.20;;;0.20;;
67348;SDS011;54234;50.320;3.474;2022-08-01T05:55:52;0.30;;;0.30;;
67348;SDS011;54234;50.320;3.474;2022-08-01T05:58:17;0.27;;;0.27;;
67348;SDS011;54234;50.320;3.474;2022-08-01T06:00:43;0.30;;;0.30;;
67348;SDS011;54234;50.320;3.474;2022-08-01T06:03:08;0.20;;;0.20;;
67348;SDS011;54234;50.320;3.474;2022-08-01T06:05:33;0.20;;;0.20;;
67348;SDS011;54234;50.320;3.474;2022-08-01T06:07:58;0.30;;;0.30;;
67348;SDS011;54234;50.320;3.474;2022-08-01T06:10:24;0.20;;;0.20;;
67348;SDS011;54234;50.320;3.474;2022-08-01T06:12:49;0.20;;;0.20;;
67348;SDS011;54234;50.320;3.474;2022-08-01T06:15:14;0.20;;;0.20;;
67348;SDS011;54234;50.320;3.474;2022-08-01T06:17:39;0.30;;;0.30;;
67348;SDS011;54234;50.320;3.474;2022-08-01T06:20:06;0.30;;;0.30;;
67348;SDS011;54234;50.320;3.474;2022-08-01T06:22:31;0.20;;;0.20;;
67348;SDS011;54234;50.320;3.474;2022-08-01T06:24:57;0.20;;;0.20;;
67348;SDS011;54234;50.320;3.474;2022-08-01T06:27:22;0.20;;;0.20;;
67348;SDS011;54234;50.320;3.474;2022-08-01T06:29:49;0.22;;;0.22;;
67348;SDS011;54234;50.320;3.474;2022-08-01T06:32:15;0.20;;;0.20;;
67348;SDS011;54234;50.320;3.474;2022-08-01T06:34:40;0.20;;;0.20;;
67348;SDS011;54234;50.320;3.474;2022-08-01T06:37:06;0.20;;;0.20;;
67348;SDS011;54234;50.320;3.474;2022-08-01T06:39:31;0.20;;;0.20;;
67348;SDS011;54234;50.320;3.474;2022-08-01T06:41:56;0.20;;;0.20;;
67348;SDS011;54234;50.320;3.474;2022-08-01T06:44:21;0.20;;;0.20;;
67348;SDS011;54234;50.320;3.474;2022-08-01T06:46:46;0.30;;;0.30;;
67348;SDS011;54234;50.320;3.474;2022-08-01T06:49:12;0.30;;;0.30;;
67348;SDS011;54234;50.320;3.474;2022-08-01T06:51:37;0.20;;;0.20;;
67348;SDS011;54234;50.320;3.474;2022-08-01T06:54:02;0.30;;;0.30;;
67348;SDS011;54234;50.320;3.474;2022-08-01T06:56:27;0.30;;;0.30;;
67348;SDS011;54234;50.320;3.474;2022-08-01T06:58:53;0.30;;;0.30;;
67348;SDS011;54234;50.320;3.474;2022-08-01T07:01:21;0.30;;;0.30;;
67348;SDS011;54234;50.320;3.474;2022-08-01T07:03:46;0.30;;;0.30;;
67348;SDS011;54234;50.320;3.474;2022-08-01T07:06:11;0.30;;;0.30;;
67348;SDS011;54234;50.320;3.474;2022-08-01T07:08:36;0.30;;;0.30;;
67348;SDS011;54234;50.320;3.474;2022-08-01T07:11:02;0.30;;;0.30;;
67348;SDS011;54234;50.320;3.474;2022-08-01T07:13:28;0.20;;;0.20;;
67348;SDS011;54234;50.320;3.474;2022-08-01T07:15:55;0.30;;;0.30;;
67348;SDS011;54234;50.320;3.474;2022-08-01T07:18:21;0.30;;;0.30;;
67348;SDS011;54234;50.320;3.474;2022-08-01T07:20:46;0.30;;;0.30;;
67348;SDS011;54234;50.320;3.474;2022-08-01T07:23:12;0.20;;;0.20;;
67348;SDS011;54234;50.320;3.474;2022-08-01T07:25:37;0.20;;;0.20;;
67348;SDS011;54234;50.320;3.474;2022-08-01T07:28:02;0.30;;;0.30;;
67348;SDS011;54234;50.320;3.474;2022-08-01T07:30:27;0.30;;;0.30;;
67348;SDS011;54234;50.320;3.474;2022-08-01T07:32:53;0.30;;;0.30;;
67348;SDS011;54234;50.320;3.474;2022-08-01T07:35:18;0.20;;;0.20;;
67348;SDS011;54234;50.320;3.474;2022-08-01T07:37:43;0.30;;;0.30;;
67348;SDS011;54234;50.320;3.474;2022-08-01T07:40:09;0.30;;;0.30;;
67348;SDS011;54234;50.320;3.474;2022-08-01T07:42:34;0.30;;;0.30;;
67348;SDS011;54234;50.320;3.474;2022-08-01T07:44:59;0.30;;;0.30;;
67348;SDS011;54234;50.320;3.474;2022-08-01T07:47:25;0.30;;;0.30;;
67348;SDS011;54234;50.320;3.474;2022-08-01T07:49:50;0.30;;;0.30;;
67348;SDS011;54234;50.320;3.474;2022-08-01T07:52:16;0.30;;;0.30;;
67348;SDS011;54234;50.320;3.474;2022-08-01T07:54:41;0.30;;;0.30;;
67348;SDS011;54234;50.320;3.474;2022-08-01T07:57:06;0.30;;;0.30;;
67348;SDS011;54234;50.320;3.474;2022-08-01T07:59:32;0.20;;;0.20;;
67348;SDS011;54234;50.320;3.474;2022-08-01T08:01:57;0.20;;;0.20;;
67348;SDS011;54234;50.320;3.474;2022-08-01T08:04:23;0.27;;;0.27;;
67348;SDS011;54234;50.320;3.474;2022-08-01T08:06:48;0.30;;;0.30;;
67348;SDS011;54234;50.320;3.474;2022-08-01T08:09:14;0.30;;;0.30;;
67348;SDS011;54234;50.320;3.474;2022-08-01T08:11:41;0.20;;;0.20;;
67348;SDS011;54234;50.320;3.474;2022-08-01T08:14:06;0.20;;;0.20;;
67348;SDS011;54234;50.320;3.474;2022-08-01T08:16:31;0.20;;;0.20;;
67348;SDS011;54234;50.320;3.474;2022-08-01T08:18:56;0.30;;;0.30;;
67348;SDS011;54234;50.320;3.474;2022-08-01T08:21:21;0.30;;;0.30;;
67348;SDS011;54234;50.320;3.474;2022-08-01T08:23:47;0.30;;;0.30;;
67348;SDS011;54234;50.320;3.474;2022-08-01T08:26:30;0.30;;;0.30;;
67348;SDS011;54234;50.320;3.474;2022-08-01T08:28:56;0.30;;;0.30;;
67348;SDS011;54234;50.320;3.474;2022-08-01T08:31:21;0.20;;;0.20;;
67348;SDS011;54234;50.320;3.474;2022-08-01T08:33:46;0.20;;;0.20;;
67348;SDS011;54234;50.320;3.474;2022-08-01T08:36:13;0.30;;;0.30;;
67348;SDS011;54234;50.320;3.474;2022-08-01T08:38:38;0.20;;;0.20;;
67348;SDS011;54234;50.320;3.474;2022-08-01T08:41:03;0.20;;;0.20;;
67348;SDS011;54234;50.320;3.474;2022-08-01T08:43:29;0.22;;;0.22;;
67348;SDS011;54234;50.320;3.474;2022-08-01T08:45:54;0.20;;;0.20;;
67348;SDS011;54234;50.320;3.474;2022-08-01T08:48:20;0.30;;;0.30;;
67348;SDS011;54234;50.320;3.474;2022-08-01T08:50:45;0.20;;;0.20;;
67348;SDS011;54234;50.320;3.474;2022-08-01T08:53:13;0.30;;;0.30;;
67348;SDS011;54234;50.320;3.474;2022-08-01T08:55:38;0.30;;;0.30;;
67348;SDS011;54234;50.320;3.474;2022-08-01T08:58:04;0.30;;;0.30;;
67348;SDS011;54234;50.320;3.474;2022-08-01T09:00:30;0.20;;;0.20;;
67348;SDS011;54234;50.320;3.474;2022-08-01T09:02:56;0.30;;;0.30;;
67348;SDS011;54234;50.320;3.474;2022-08-01T09:05:22;0.30;;;0.30;;
67348;SDS011;54234;50.320;3.474;2022-08-01T09:07:51;0.30;;;0.30;;
67348;SDS011;54234;50.320;3.474;2022-08-01T09:10:16;0.30;;;0.30;;
67348;SDS011;54234;50.320;3.474;2022-08-01T09:13:01;0.30;;;0.30;;
67348;SDS011;54234;50.320;3.474;2022-08-01T09:15:43;0.30;;;0.30;;
67348;SDS011;54234;50.320;3.474;2022-08-01T09:18:24;0.30;;;0.30;;
67348;SDS011;54234;50.320;3.474;2022-08-01T09:20:50;0.20;;;0.20;;
67348;SDS011;54234;50.320;3.474;2022-08-01T09:25:59;0.22;;;0.22;;
67348;SDS011;54234;50.320;3.474;2022-08-01T09:28:28;0.30;;;0.30;;
67348;SDS011;54234;50.320;3.474;2022-08-01T09:30:55;0.25;;;0.25;;
67348;SDS011;54234;50.320;3.474;2022-08-01T09:33:20;0.30;;;0.30;;
67348;SDS011;54234;50.320;3.474;2022-08-01T09:35:46;0.20;;;0.20;;
67348;SDS011;54234;50.320;3.474;2022-08-01T09:38:22;0.28;;;0.28;;
67348;SDS011;54234;50.320;3.474;2022-08-01T09:40:51;0.30;;;0.30;;
67348;SDS011;54234;50.320;3.474;2022-08-01T09:43:17;0.30;;;0.30;;
67348;SDS011;54234;50.320;3.474;2022-08-01T09:45:43;0.30;;;0.30;;
67348;SDS011;54234;50.320;3.474;2022-08-01T09:48:09;0.30;;;0.30;;
67348;SDS011;54234;50.320;3.474;2022-08-01T09:50:41;0.30;;;0.30;;
67348;SDS011;54234;50.320;3.474;2022-08-01T09:53:07;0.30;;;0.30;;
67348;SDS011;54234;50.320;3.474;2022-08-01T09:55:32;0.30;;;0.30;;
67348;SDS011;54234;50.320;3.474;2022-08-01T09:57:57;0.30;;;0.30;;
67348;SDS011;54234;50.320;3.474;2022-08-01T10:00:25;0.30;;;0.30;;
67348;SDS011;54234;50.320;3.474;2022-08-01T10:02:50;0.30;;;0.30;;
67348;SDS011;54234;50.320;3.474;2022-08-01T10:05:16;0.30;;;0.30;;
67348;SDS011;54234;50.320;3.474;2022-08-01T10:07:58;0.30;;;0.30;;
67348;SDS011;54234;50.320;3.474;2022-08-01T10:10:23;0.30;;;0.30;;
67348;SDS011;54234;50.320;3.474;2022-08-01T10:12:48;0.30;;;0.30;;
67348;SDS011;54234;50.320;3.474;2022-08-01T10:15:16;0.30;;;0.30;;
67348;SDS011;54234;50.320;3.474;2022-08-01T10:17:45;0.30;;;0.30;;
67348;SDS011;54234;50.320;3.474;2022-08-01T10:20:11;0.30;;;0.30;;
67348;SDS011;54234;50.320;3.474;2022-08-01T10:22:37;0.30;;;0.30;;
67348;SDS011;54234;50.320;3.474;2022-08-01T10:25:03;0.30;;;0.30;;
67348;SDS011;54234;50.320;3.474;2022-08-01T10:27:29;0.30;;;0.30;;
67348;SDS011;54234;50.320;3.474;2022-08-01T10:29:58;0.30;;;0.30;;
67348;SDS011;54234;50.320;3.474;2022-08-01T10:32:28;0.30;;;0.30;;
67348;SDS011;54234;50.320;3.474;2022-08-01T10:34:54;0.30;;;0.30;;
67348;SDS011;54234;50.320;3.474;2022-08-01T10:37:19;0.30;;;0.30;;
67348;SDS011;54234;50.320;3.474;2022-08-01T10:39:48;0.30;;;0.30;;
67348;SDS011;54234;50.320;3.474;2022-08-01T10:42:14;0.30;;;0.30;;
67348;SDS011;54234;50.320;3.474;2022-08-01T10:44:39;0.30;;;0.30;;
67348;SDS011;54234;50.320;3.474;2022-08-01T10:47:12;0.30;;;0.30;;
67348;SDS011;54234;50.320;3.474;2022-08-01T10:49:47;0.30;;;0.30;;
67348;SDS011;54234;50.320;3.474;2022-08-01T10:52:17;0.30;;;0.30;;
67348;SDS011;54234;50.320;3.474;2022-08-01T10:54:42;0.30;;;0.30;;
67348;SDS011;54234;50.320;3.474;2022-08-01T10:57:08;0.30;;;0.30;;
67348;SDS011;54234;50.320;3.474;2022-08-01T10:59:33;0.30;;;0.30;;
67348;SDS011;54234;50.320;3.474;2022-08-01T11:02:04;0.30;;;0.30;;
67348;SDS011;54234;50.320;3.474;2022-08-01T11:07:02;0.30;;;0.30;;
67348;SDS011;54234;50.320;3.474;2022-08-01T11:09:30;0.30;;;0.30;;
67348;SDS011;54234;50.320;3.474;2022-08-01T11:12:05;0.30;;;0.30;;
67348;SDS011;54234;50.320;3.474;2022-08-01T11:14:32;0.30;;;0.30;;
67348;SDS011;54234;50.320;3.474;2022-08-01T11:20:03;0.30;;;0.30;;
67348;SDS011;54234;50.320;3.474;2022-08-01T11:22:28;0.30;;;0.30;;
67348;SDS011;54234;50.320;3.474;2022-08-01T11:24:54;0.30;;;0.30;;
67348;SDS011;54234;50.320;3.474;2022-08-01T11:27:22;0.30;;;0.30;;
67348;SDS011;54234;50.320;3.474;2022-08-01T11:32:33;0.30;;;0.30;;
67348;SDS011;54234;50.320;3.474;2022-08-01T11:34:58;0.30;;;0.30;;
67348;SDS011;54234;50.320;3.474;2022-08-01T11:37:29;0.30;;;0.30;;
67348;SDS011;54234;50.320;3.474;2022-08-01T11:42:38;0.30;;;0.30;;
67348;SDS011;54234;50.320;3.474;2022-08-01T11:45:03;0.30;;;0.30;;
67348;SDS011;54234;50.320;3.474;2022-08-01T11:50:29;0.30;;;0.30;;
67348;SDS011;54234;50.320;3.474;2022-08-01T11:52:58;0.30;;;0.30;;
67348;SDS011;54234;50.320;3.474;2022-08-01T11:55:23;0.30;;;0.30;;
67348;SDS011;54234;50.320;3.474;2022-08-01T11:57:49;0.30;;;0.30;;
67348;SDS011;54234;50.320;3.474;2022-08-01T12:00:15;0.30;;;0.30;;
67348;SDS011;54234;50.320;3.474;2022-08-01T12:02:41;0.30;;;0.30;;
67348;SDS011;54234;50.320;3.474;2022-08-01T12:05:11;0.30;;;0.30;;
67348;SDS011;54234;50.320;3.474;2022-08-01T12:07:40;0.30;;;0.30;;
67348;SDS011;54234;50.320;3.474;2022-08-01T12:10:16;0.30;;;0.30;;
67348;SDS011;54234;50.320;3.474;2022-08-01T12:12:45;0.30;;;0.30;;
67348;SDS011;54234;50.320;3.474;2022-08-01T12:15:11;0.30;;;0.30;;
67348;SDS011;54234;50.320;3.474;2022-08-01T12:20:03;0.30;;;0.30;;
67348;SDS011;54234;50.320;3.474;2022-08-01T12:22:29;0.30;;;0.30;;
67348;SDS011;54234;50.320;3.474;2022-08-01T12:24:54;0.30;;;0.30;;
67348;SDS011;54234;50.320;3.474;2022-08-01T12:27:39;0.30;;;0.30;;
67348;SDS011;54234;50.320;3.474;2022-08-01T12:30:08;0.30;;;0.30;;
67348;SDS011;54234;50.320;3.474;2022-08-01T12:32:35;0.30;;;0.30;;
67348;SDS011;54234;50.320;3.474;2022-08-01T12:35:02;0.30;;;0.30;;
67348;SDS011;54234;50.320;3.474;2022-08-01T12:37:28;0.30;;;0.30;;
67348;SDS011;54234;50.320;3.474;2022-08-01T12:39:53;0.30;;;0.30;;
67348;SDS011;54234;50.320;3.474;2022-08-01T12:42:19;0.30;;;0.30;;
67348;SDS011;54234;50.320;3.474;2022-08-01T12:44:45;0.30;;;0.30;;
67348;SDS011;54234;50.320;3.474;2022-08-01T12:47:12;0.30;;;0.30;;
67348;SDS011;54234;50.320;3.474;2022-08-01T12:49:38;0.30;;;0.30;;
67348;SDS011;54234;50.320;3.474;2022-08-01T12:52:04;0.30;;;0.30;;
67348;SDS011;54234;50.320;3.474;2022-08-01T12:54:29;0.30;;;0.30;;
67348;SDS011;54234;50.320;3.474;2022-08-01T12:56:54;0.30;;;0.30;;
67348;SDS011;54234;50.320;3.474;2022-08-01T12:59:23;0.30;;;0.30;;
67348;SDS011;54234;50.320;3.474;2022-08-01T13:01:51;0.40;;;0.40;;
67348;SDS011;54234;50.320;3.474;2022-08-01T13:04:16;0.40;;;0.40;;
67348;SDS011;54234;50.320;3.474;2022-08-01T13:06:41;0.47;;;0.47;;
67348;SDS011;54234;50.320;3.474;2022-08-01T13:09:07;0.40;;;0.40;;
67348;SDS011;54234;50.320;3.474;2022-08-01T13:11:33;0.40;;;0.40;;
67348;SDS011;54234;50.320;3.474;2022-08-01T13:13:59;0.40;;;0.40;;
67348;SDS011;54234;50.320;3.474;2022-08-01T13:16:25;0.50;;;0.50;;
67348;SDS011;54234;50.320;3.474;2022-08-01T13:18:51;0.52;;;0.52;;
67348;SDS011;54234;50.320;3.474;2022-08-01T13:21:26;0.60;;;0.60;;
67348;SDS011;54234;50.320;3.474;2022-08-01T13:24:05;0.60;;;0.60;;
67348;SDS011;54234;50.320;3.474;2022-08-01T13:26:38;0.70;;;0.70;;
67348;SDS011;54234;50.320;3.474;2022-08-01T13:29:04;0.70;;;0.70;;
67348;SDS011;54234;50.320;3.474;2022-08-01T13:31:35;0.70;;;0.70;;
67348;SDS011;54234;50.320;3.474;2022-08-01T13:34:01;0.60;;;0.60;;
67348;SDS011;54234;50.320;3.474;2022-08-01T13:36:26;0.70;;;0.70;;
67348;SDS011;54234;50.320;3.474;2022-08-01T13:38:53;0.60;;;0.60;;
67348;SDS011;54234;50.320;3.474;2022-08-01T13:41:37;0.50;;;0.50;;
67348;SDS011;54234;50.320;3.474;2022-08-01T13:44:03;0.60;;;0.60;;
67348;SDS011;54234;50.320;3.474;2022-08-01T13:46:28;0.60;;;0.60;;
67348;SDS011;54234;50.320;3.474;2022-08-01T13:48:56;0.70;;;0.70;;
67348;SDS011;54234;50.320;3.474;2022-08-01T13:51:22;0.70;;;0.70;;
67348;SDS011;54234;50.320;3.474;2022-08-01T13:53:47;0.70;;;0.70;;
67348;SDS011;54234;50.320;3.474;2022-08-01T13:56:12;0.70;;;0.70;;
67348;SDS011;54234;50.320;3.474;2022-08-01T13:58:37;0.83;;;0.83;;
67348;SDS011;54234;50.320;3.474;2022-08-01T14:01:02;0.90;;;0.90;;
67348;SDS011;54234;50.320;3.474;2022-08-01T14:03:28;0.90;;;0.90;;
67348;SDS011;54234;50.320;3.474;2022-08-01T14:05:53;0.80;;;0.80;;
67348;SDS011;54234;50.320;3.474;2022-08-01T14:08:18;0.80;;;0.80;;
67348;SDS011;54234;50.320;3.474;2022-08-01T14:10:43;0.70;;;0.70;;
67348;SDS011;54234;50.320;3.474;2022-08-01T14:13:09;0.70;;;0.70;;
67348;SDS011;54234;50.320;3.474;2022-08-01T14:15:34;0.70;;;0.70;;
67348;SDS011;54234;50.320;3.474;2022-08-01T14:17:59;0.60;;;0.60;;
67348;SDS011;54234;50.320;3.474;2022-08-01T14:20:25;0.60;;;0.60;;
67348;SDS011;54234;50.320;3.474;2022-08-01T14:22:50;0.60;;;0.60;;
67348;SDS011;54234;50.320;3.474;2022-08-01T14:25:15;0.60;;;0.60;;
67348;SDS011;54234;50.320;3.474;2022-08-01T14:27:42;0.60;;;0.60;;
67348;SDS011;54234;50.320;3.474;2022-08-01T14:30:08;0.70;;;0.70;;
67348;SDS011;54234;50.320;3.474;2022-08-01T14:32:33;0.60;;;0.60;;
67348;SDS011;54234;50.320;3.474;2022-08-01T14:34:59;0.60;;;0.60;;
67348;SDS011;54234;50.320;3.474;2022-08-01T14:37:24;0.50;;;0.50;;
67348;SDS011;54234;50.320;3.474;2022-08-01T14:39:49;0.50;;;0.50;;
67348;SDS011;54234;50.320;3.474;2022-08-01T14:42:15;0.40;;;0.40;;
67348;SDS011;54234;50.320;3.474;2022-08-01T14:44:40;0.50;;;0.50;;
67348;SDS011;54234;50.320;3.474;2022-08-01T14:47:05;0.40;;;0.40;;
67348;SDS011;54234;50.320;3.474;2022-08-01T14:49:33;0.40;;;0.40;;
67348;SDS011;54234;50.320;3.474;2022-08-01T14:51:58;0.40;;;0.40;;
67348;SDS011;54234;50.320;3.474;2022-08-01T14:54:23;0.40;;;0.40;;
67348;SDS011;54234;50.320;3.474;2022-08-01T14:56:49;0.40;;;0.40;;
67348;SDS011;54234;50.320;3.474;2022-08-01T14:59:14;0.40;;;0.40;;
67348;SDS011;54234;50.320;3.474;2022-08-01T15:01:39;0.40;;;0.40;;
67348;SDS011;54234;50.320;3.474;2022-08-01T15:04:04;0.40;;;0.40;;
67348;SDS011;54234;50.320;3.474;2022-08-01T15:06:30;0.30;;;0.30;;
67348;SDS011;54234;50.320;3.474;2022-08-01T15:08:55;0.37;;;0.37;;
67348;SDS011;54234;50.320;3.474;2022-08-01T15:11:20;0.40;;;0.40;;